sensor_id;sensor_type;location;lat;lon;timestamp;temperature;humidity
67862;DHT22;54665;51.462;6.698;2024-03-06T00:01:33;4.29;92.95
67862;DHT22;54665;51.462;6.698;2024-03-06T00:03:33;4.39;92.99
67862;DHT22;54665;51.462;6.698;2024-03-06T00:05:33;4.35;92.33
67862;DHT22;54665;51.462;6.698;2024-03-06T00:07:34;4.29;92.51
67862;DHT22;54665;51.462;6.698;2024-03-06T00:09:34;4.28;94.26
67862;DHT22;54665;51.462;6.698;2024-03-06T00:11:34;4.28;93.61
67862;DHT22;54665;51.462;6.698;2024-03-06T00:13:35;4.24;92.53
67862;DHT22;54665;51.462;6.698;2024-03-06T00:15:35;4.18;92.51
67862;DHT22;54665;51.462;6.698;2024-03-06T00:17:35;4.12;92.34
67862;DHT22;54665;51.462;6.698;2024-03-06T00:19:36;4.14;92.30
67862;DHT22;54665;51.462;6.698;2024-03-06T00:21:36;4.15;92.77
67862;DHT22;54665;51.462;6.698;2024-03-06T00:23:36;4.12;93.05
67862;DHT22;54665;51.462;6.698;2024-03-06T00:25:36;4.26;92.94
67862;DHT22;54665;51.462;6.698;2024-03-06T00:27:37;4.31;92.75
67862;DHT22;54665;51.462;6.698;2024-03-06T00:29:37;4.25;92.91
67862;DHT22;54665;51.462;6.698;2024-03-06T00:31:46;4.26;93.08
67862;DHT22;54665;51.462;6.698;2024-03-06T00:33:47;4.24;92.96
67862;DHT22;54665;51.462;6.698;2024-03-06T00:35:48;4.24;93.06
67862;DHT22;54665;51.462;6.698;2024-03-06T00:37:48;4.26;92.80
67862;DHT22;54665;51.462;6.698;2024-03-06T00:39:48;4.19;92.70
67862;DHT22;54665;51.462;6.698;2024-03-06T00:41:48;4.14;92.30
67862;DHT22;54665;51.462;6.698;2024-03-06T00:43:49;4.08;92.05
67862;DHT22;54665;51.462;6.698;2024-03-06T00:45:49;4.04;92.13
67862;DHT22;54665;51.462;6.698;2024-03-06T00:47:50;4.02;92.35
67862;DHT22;54665;51.462;6.698;2024-03-06T00:49:50;3.99;92.12
67862;DHT22;54665;51.462;6.698;2024-03-06T00:51:50;3.91;92.06
67862;DHT22;54665;51.462;6.698;2024-03-06T00:53:51;3.87;92.08
67862;DHT22;54665;51.462;6.698;2024-03-06T00:55:51;3.85;92.07
67862;DHT22;54665;51.462;6.698;2024-03-06T00:57:51;3.81;92.51
67862;DHT22;54665;51.462;6.698;2024-03-06T00:59:52;3.84;92.48
67862;DHT22;54665;51.462;6.698;2024-03-06T01:01:52;3.84;92.53
67862;DHT22;54665;51.462;6.698;2024-03-06T01:03:52;3.81;92.55
67862;DHT22;54665;51.462;6.698;2024-03-06T01:05:52;3.80;92.59
67862;DHT22;54665;51.462;6.698;2024-03-06T01:07:53;3.84;92.67
67862;DHT22;54665;51.462;6.698;2024-03-06T01:09:53;3.84;92.88
67862;DHT22;54665;51.462;6.698;2024-03-06T01:11:53;3.94;92.43
67862;DHT22;54665;51.462;6.698;2024-03-06T01:13:54;3.91;92.30
67862;DHT22;54665;51.462;6.698;2024-03-06T01:15:54;3.90;92.11
67862;DHT22;54665;51.462;6.698;2024-03-06T01:17:54;3.83;91.82
67862;DHT22;54665;51.462;6.698;2024-03-06T01:19:55;3.77;92.27
67862;DHT22;54665;51.462;6.698;2024-03-06T01:21:55;3.67;92.78
67862;DHT22;54665;51.462;6.698;2024-03-06T01:23:55;3.77;93.47
67862;DHT22;54665;51.462;6.698;2024-03-06T01:25:56;3.85;93.56
67862;DHT22;54665;51.462;6.698;2024-03-06T01:27:56;3.85;93.11
67862;DHT22;54665;51.462;6.698;2024-03-06T01:29:56;3.87;92.86
67862;DHT22;54665;51.462;6.698;2024-03-06T01:31:57;3.74;92.74
67862;DHT22;54665;51.462;6.698;2024-03-06T01:33:57;3.85;93.15
67862;DHT22;54665;51.462;6.698;2024-03-06T01:35:57;3.93;92.76
67862;DHT22;54665;51.462;6.698;2024-03-06T01:37:57;3.88;92.89
67862;DHT22;54665;51.462;6.698;2024-03-06T01:39:58;3.84;92.44
67862;DHT22;54665;51.462;6.698;2024-03-06T01:41:58;3.81;92.45
67862;DHT22;54665;51.462;6.698;2024-03-06T01:43:58;3.69;93.09
67862;DHT22;54665;51.462;6.698;2024-03-06T01:45:59;3.77;93.34
67862;DHT22;54665;51.462;6.698;2024-03-06T01:47:59;3.80;93.42
67862;DHT22;54665;51.462;6.698;2024-03-06T01:49:59;3.80;93.19
67862;DHT22;54665;51.462;6.698;2024-03-06T01:52:00;3.74;92.79
67862;DHT22;54665;51.462;6.698;2024-03-06T01:54:01;3.71;92.82
67862;DHT22;54665;51.462;6.698;2024-03-06T01:56:03;3.83;92.79
67862;DHT22;54665;51.462;6.698;2024-03-06T01:58:04;3.77;92.28
67862;DHT22;54665;51.462;6.698;2024-03-06T02:00:05;3.83;92.54
67862;DHT22;54665;51.462;6.698;2024-03-06T02:02:06;3.73;92.68
67862;DHT22;54665;51.462;6.698;2024-03-06T02:04:08;3.73;92.92
67862;DHT22;54665;51.462;6.698;2024-03-06T02:06:09;3.75;92.93
67862;DHT22;54665;51.462;6.698;2024-03-06T02:08:10;3.75;92.95
67862;DHT22;54665;51.462;6.698;2024-03-06T02:10:10;3.80;92.68
67862;DHT22;54665;51.462;6.698;2024-03-06T02:12:10;3.80;92.53
67862;DHT22;54665;51.462;6.698;2024-03-06T02:14:11;3.74;92.25
67862;DHT22;54665;51.462;6.698;2024-03-06T02:16:11;3.66;92.56
67862;DHT22;54665;51.462;6.698;2024-03-06T02:18:12;3.73;93.25
67862;DHT22;54665;51.462;6.698;2024-03-06T02:20:12;3.77;93.20
67862;DHT22;54665;51.462;6.698;2024-03-06T02:22:12;3.85;93.05
67862;DHT22;54665;51.462;6.698;2024-03-06T02:24:13;3.84;92.76
67862;DHT22;54665;51.462;6.698;2024-03-06T02:26:13;3.87;92.61
67862;DHT22;54665;51.462;6.698;2024-03-06T02:28:13;3.93;92.64
67862;DHT22;54665;51.462;6.698;2024-03-06T02:30:14;4.01;92.67
67862;DHT22;54665;51.462;6.698;2024-03-06T02:32:14;4.09;92.98
67862;DHT22;54665;51.462;6.698;2024-03-06T02:34:14;4.25;92.87
67862;DHT22;54665;51.462;6.698;2024-03-06T02:36:17;4.33;92.65
67862;DHT22;54665;51.462;6.698;2024-03-06T02:38:18;4.35;92.71
67862;DHT22;54665;51.462;6.698;2024-03-06T02:40:18;4.33;93.15
67862;DHT22;54665;51.462;6.698;2024-03-06T02:42:19;4.32;94.74
67862;DHT22;54665;51.462;6.698;2024-03-06T02:44:19;4.39;94.21
67862;DHT22;54665;51.462;6.698;2024-03-06T02:46:19;4.46;93.64
67862;DHT22;54665;51.462;6.698;2024-03-06T02:48:20;4.41;93.77
67862;DHT22;54665;51.462;6.698;2024-03-06T02:50:20;4.46;93.49
67862;DHT22;54665;51.462;6.698;2024-03-06T02:52:20;4.46;92.82
67862;DHT22;54665;51.462;6.698;2024-03-06T02:54:21;4.38;92.38
67862;DHT22;54665;51.462;6.698;2024-03-06T02:56:21;4.19;92.28
67862;DHT22;54665;51.462;6.698;2024-03-06T02:58:21;4.15;92.46
67862;DHT22;54665;51.462;6.698;2024-03-06T03:00:21;3.99;92.39
67862;DHT22;54665;51.462;6.698;2024-03-06T03:02:22;3.99;92.63
67862;DHT22;54665;51.462;6.698;2024-03-06T03:04:23;3.87;91.73
67862;DHT22;54665;51.462;6.698;2024-03-06T03:06:23;3.61;93.53
67862;DHT22;54665;51.462;6.698;2024-03-06T03:08:23;3.61;93.48
67862;DHT22;54665;51.462;6.698;2024-03-06T03:10:23;3.60;92.79
67862;DHT22;54665;51.462;6.698;2024-03-06T03:12:24;3.56;92.29
67862;DHT22;54665;51.462;6.698;2024-03-06T03:14:24;3.46;93.43
67862;DHT22;54665;51.462;6.698;2024-03-06T03:16:24;3.52;92.80
67862;DHT22;54665;51.462;6.698;2024-03-06T03:18:25;3.40;92.68
67862;DHT22;54665;51.462;6.698;2024-03-06T03:20:25;3.43;93.21
67862;DHT22;54665;51.462;6.698;2024-03-06T03:22:25;3.54;93.49
67862;DHT22;54665;51.462;6.698;2024-03-06T03:24:26;3.52;92.38
67862;DHT22;54665;51.462;6.698;2024-03-06T03:26:26;3.40;92.08
67862;DHT22;54665;51.462;6.698;2024-03-06T03:28:26;3.36;92.60
67862;DHT22;54665;51.462;6.698;2024-03-06T03:30:26;3.33;92.69
67862;DHT22;54665;51.462;6.698;2024-03-06T03:32:27;3.33;92.79
67862;DHT22;54665;51.462;6.698;2024-03-06T03:34:27;3.37;92.68
67862;DHT22;54665;51.462;6.698;2024-03-06T03:36:28;3.39;92.77
67862;DHT22;54665;51.462;6.698;2024-03-06T03:38:28;3.29;92.83
67862;DHT22;54665;51.462;6.698;2024-03-06T03:40:28;3.24;93.41
67862;DHT22;54665;51.462;6.698;2024-03-06T03:42:28;3.27;92.99
67862;DHT22;54665;51.462;6.698;2024-03-06T03:44:29;3.30;92.83
67862;DHT22;54665;51.462;6.698;2024-03-06T03:46:29;3.20;92.68
67862;DHT22;54665;51.462;6.698;2024-03-06T03:48:30;3.29;93.09
67862;DHT22;54665;51.462;6.698;2024-03-06T03:50:31;3.34;93.59
67862;DHT22;54665;51.462;6.698;2024-03-06T03:52:31;3.43;93.27
67862;DHT22;54665;51.462;6.698;2024-03-06T03:54:31;3.46;93.53
67862;DHT22;54665;51.462;6.698;2024-03-06T03:56:32;3.46;92.71
67862;DHT22;54665;51.462;6.698;2024-03-06T03:58:32;3.43;92.74
67862;DHT22;54665;51.462;6.698;2024-03-06T04:00:33;3.32;92.69
67862;DHT22;54665;51.462;6.698;2024-03-06T04:02:33;3.19;92.36
67862;DHT22;54665;51.462;6.698;2024-03-06T04:04:34;3.18;92.45
67862;DHT22;54665;51.462;6.698;2024-03-06T04:06:35;3.16;92.60
67862;DHT22;54665;51.462;6.698;2024-03-06T04:08:35;3.12;92.61
67862;DHT22;54665;51.462;6.698;2024-03-06T04:10:35;3.09;92.63
67862;DHT22;54665;51.462;6.698;2024-03-06T04:12:36;3.05;92.91
67862;DHT22;54665;51.462;6.698;2024-03-06T04:14:37;2.92;93.15
67862;DHT22;54665;51.462;6.698;2024-03-06T04:16:37;3.06;93.43
67862;DHT22;54665;51.462;6.698;2024-03-06T04:18:37;3.15;93.05
67862;DHT22;54665;51.462;6.698;2024-03-06T04:20:37;3.15;92.63
67862;DHT22;54665;51.462;6.698;2024-03-06T04:22:41;3.11;92.46
67862;DHT22;54665;51.462;6.698;2024-03-06T04:24:41;3.06;92.84
67862;DHT22;54665;51.462;6.698;2024-03-06T04:26:41;3.02;92.84
67862;DHT22;54665;51.462;6.698;2024-03-06T04:28:42;3.01;92.99
67862;DHT22;54665;51.462;6.698;2024-03-06T04:30:42;3.01;93.07
67862;DHT22;54665;51.462;6.698;2024-03-06T04:32:42;3.09;93.00
67862;DHT22;54665;51.462;6.698;2024-03-06T04:34:43;3.11;93.00
67862;DHT22;54665;51.462;6.698;2024-03-06T04:36:43;3.09;92.43
67862;DHT22;54665;51.462;6.698;2024-03-06T04:38:43;3.03;92.03
67862;DHT22;54665;51.462;6.698;2024-03-06T04:40:43;2.99;92.44
67862;DHT22;54665;51.462;6.698;2024-03-06T04:42:46;3.03;92.75
67862;DHT22;54665;51.462;6.698;2024-03-06T04:44:47;2.91;92.71
67862;DHT22;54665;51.462;6.698;2024-03-06T04:46:50;2.95;92.94
67862;DHT22;54665;51.462;6.698;2024-03-06T04:48:50;2.98;92.85
67862;DHT22;54665;51.462;6.698;2024-03-06T04:50:50;3.02;92.82
67862;DHT22;54665;51.462;6.698;2024-03-06T04:52:50;2.96;92.67
67862;DHT22;54665;51.462;6.698;2024-03-06T04:54:51;2.95;92.73
67862;DHT22;54665;51.462;6.698;2024-03-06T04:56:51;3.01;92.67
67862;DHT22;54665;51.462;6.698;2024-03-06T04:58:51;3.05;92.60
67862;DHT22;54665;51.462;6.698;2024-03-06T05:00:52;3.01;92.50
67862;DHT22;54665;51.462;6.698;2024-03-06T05:02:52;2.92;92.44
67862;DHT22;54665;51.462;6.698;2024-03-06T05:04:52;2.91;92.83
67862;DHT22;54665;51.462;6.698;2024-03-06T05:06:52;3.01;92.78
67862;DHT22;54665;51.462;6.698;2024-03-06T05:08:53;3.02;92.88
67862;DHT22;54665;51.462;6.698;2024-03-06T05:10:53;3.01;92.65
67862;DHT22;54665;51.462;6.698;2024-03-06T05:12:53;3.01;92.92
67862;DHT22;54665;51.462;6.698;2024-03-06T05:14:54;2.89;91.63
67862;DHT22;54665;51.462;6.698;2024-03-06T05:16:55;2.78;92.70
67862;DHT22;54665;51.462;6.698;2024-03-06T05:18:56;2.72;93.52
67862;DHT22;54665;51.462;6.698;2024-03-06T05:20:56;2.74;92.56
67862;DHT22;54665;51.462;6.698;2024-03-06T05:22:57;2.78;92.91
67862;DHT22;54665;51.462;6.698;2024-03-06T05:24:57;2.74;92.91
67862;DHT22;54665;51.462;6.698;2024-03-06T05:26:57;2.77;93.15
67862;DHT22;54665;51.462;6.698;2024-03-06T05:28:58;2.78;93.24
67862;DHT22;54665;51.462;6.698;2024-03-06T05:30:58;2.81;92.93
67862;DHT22;54665;51.462;6.698;2024-03-06T05:32:58;2.74;92.76
67862;DHT22;54665;51.462;6.698;2024-03-06T05:34:58;2.68;93.33
67862;DHT22;54665;51.462;6.698;2024-03-06T05:36:59;2.77;93.17
67862;DHT22;54665;51.462;6.698;2024-03-06T05:38:59;2.70;92.97
67862;DHT22;54665;51.462;6.698;2024-03-06T05:41:00;2.72;93.10
67862;DHT22;54665;51.462;6.698;2024-03-06T05:43:00;2.78;92.90
67862;DHT22;54665;51.462;6.698;2024-03-06T05:45:00;2.65;92.91
67862;DHT22;54665;51.462;6.698;2024-03-06T05:47:02;2.74;92.83
67862;DHT22;54665;51.462;6.698;2024-03-06T05:49:02;2.79;92.89
67862;DHT22;54665;51.462;6.698;2024-03-06T05:51:02;2.84;92.86
67862;DHT22;54665;51.462;6.698;2024-03-06T05:53:03;2.88;92.78
67862;DHT22;54665;51.462;6.698;2024-03-06T05:55:04;2.79;92.21
67862;DHT22;54665;51.462;6.698;2024-03-06T05:57:04;2.72;92.41
67862;DHT22;54665;51.462;6.698;2024-03-06T05:59:04;2.72;93.61
67862;DHT22;54665;51.462;6.698;2024-03-06T06:01:05;2.75;94.49
67862;DHT22;54665;51.462;6.698;2024-03-06T06:03:05;2.84;92.84
67862;DHT22;54665;51.462;6.698;2024-03-06T06:05:06;2.77;93.22
67862;DHT22;54665;51.462;6.698;2024-03-06T06:07:06;2.72;92.75
67862;DHT22;54665;51.462;6.698;2024-03-06T06:09:07;2.68;93.35
67862;DHT22;54665;51.462;6.698;2024-03-06T06:11:07;2.72;94.84
67862;DHT22;54665;51.462;6.698;2024-03-06T06:13:07;2.91;95.69
67862;DHT22;54665;51.462;6.698;2024-03-06T06:15:08;2.93;95.61
67862;DHT22;54665;51.462;6.698;2024-03-06T06:17:08;3.12;95.12
67862;DHT22;54665;51.462;6.698;2024-03-06T06:19:09;3.24;93.32
67862;DHT22;54665;51.462;6.698;2024-03-06T06:21:09;3.03;93.32
67862;DHT22;54665;51.462;6.698;2024-03-06T06:23:09;3.01;93.12
67862;DHT22;54665;51.462;6.698;2024-03-06T06:25:10;2.99;93.36
67862;DHT22;54665;51.462;6.698;2024-03-06T06:27:10;3.06;92.82
67862;DHT22;54665;51.462;6.698;2024-03-06T06:29:10;3.11;93.15
67862;DHT22;54665;51.462;6.698;2024-03-06T06:31:11;3.12;92.51
67862;DHT22;54665;51.462;6.698;2024-03-06T06:33:11;3.11;92.50
67862;DHT22;54665;51.462;6.698;2024-03-06T06:35:12;3.06;92.67
67862;DHT22;54665;51.462;6.698;2024-03-06T06:37:12;3.06;93.00
67862;DHT22;54665;51.462;6.698;2024-03-06T06:39:13;3.16;93.08
67862;DHT22;54665;51.462;6.698;2024-03-06T06:41:14;3.24;92.98
67862;DHT22;54665;51.462;6.698;2024-03-06T06:43:14;3.32;93.08
67862;DHT22;54665;51.462;6.698;2024-03-06T06:45:18;3.34;93.19
67862;DHT22;54665;51.462;6.698;2024-03-06T06:47:19;3.40;93.44
67862;DHT22;54665;51.462;6.698;2024-03-06T06:49:19;3.67;93.12
67862;DHT22;54665;51.462;6.698;2024-03-06T06:51:19;3.83;92.88
67862;DHT22;54665;51.462;6.698;2024-03-06T06:53:19;3.99;92.72
67862;DHT22;54665;51.462;6.698;2024-03-06T06:55:20;4.04;92.44
67862;DHT22;54665;51.462;6.698;2024-03-06T06:57:20;4.04;92.39
67862;DHT22;54665;51.462;6.698;2024-03-06T06:59:20;3.93;92.20
67862;DHT22;54665;51.462;6.698;2024-03-06T07:01:21;3.95;92.63
67862;DHT22;54665;51.462;6.698;2024-03-06T07:03:21;3.99;92.46
67862;DHT22;54665;51.462;6.698;2024-03-06T07:05:21;4.01;92.12
67862;DHT22;54665;51.462;6.698;2024-03-06T07:07:21;4.08;92.33
67862;DHT22;54665;51.462;6.698;2024-03-06T07:09:22;4.15;92.40
67862;DHT22;54665;51.462;6.698;2024-03-06T07:11:22;4.18;92.42
67862;DHT22;54665;51.462;6.698;2024-03-06T07:13:22;4.19;92.43
67862;DHT22;54665;51.462;6.698;2024-03-06T07:15:22;4.29;92.42
67862;DHT22;54665;51.462;6.698;2024-03-06T07:17:23;4.29;92.47
67862;DHT22;54665;51.462;6.698;2024-03-06T07:19:23;4.31;92.30
67862;DHT22;54665;51.462;6.698;2024-03-06T07:21:24;4.42;92.52
67862;DHT22;54665;51.462;6.698;2024-03-06T07:23:24;4.55;92.44
67862;DHT22;54665;51.462;6.698;2024-03-06T07:25:24;4.70;92.54
67862;DHT22;54665;51.462;6.698;2024-03-06T07:27:25;4.74;92.24
67862;DHT22;54665;51.462;6.698;2024-03-06T07:29:25;4.93;92.23
67862;DHT22;54665;51.462;6.698;2024-03-06T07:31:25;5.00;92.12
67862;DHT22;54665;51.462;6.698;2024-03-06T07:33:26;5.13;92.06
67862;DHT22;54665;51.462;6.698;2024-03-06T07:35:26;5.23;92.02
67862;DHT22;54665;51.462;6.698;2024-03-06T07:37:26;5.30;91.94
67862;DHT22;54665;51.462;6.698;2024-03-06T07:39:26;5.37;91.83
67862;DHT22;54665;51.462;6.698;2024-03-06T07:41:27;5.39;92.15
67862;DHT22;54665;51.462;6.698;2024-03-06T07:43:27;5.48;92.18
67862;DHT22;54665;51.462;6.698;2024-03-06T07:45:27;5.56;92.09
67862;DHT22;54665;51.462;6.698;2024-03-06T07:47:28;5.65;92.16
67862;DHT22;54665;51.462;6.698;2024-03-06T07:49:28;5.83;92.31
67862;DHT22;54665;51.462;6.698;2024-03-06T07:51:32;6.02;92.62
67862;DHT22;54665;51.462;6.698;2024-03-06T07:53:32;6.21;93.02
67862;DHT22;54665;51.462;6.698;2024-03-06T07:55:32;6.40;93.30
67862;DHT22;54665;51.462;6.698;2024-03-06T07:57:33;6.50;93.73
67862;DHT22;54665;51.462;6.698;2024-03-06T07:59:33;6.93;93.53
67862;DHT22;54665;51.462;6.698;2024-03-06T08:01:33;7.29;92.88
67862;DHT22;54665;51.462;6.698;2024-03-06T08:03:34;7.63;92.27
67862;DHT22;54665;51.462;6.698;2024-03-06T08:05:34;7.40;92.04
67862;DHT22;54665;51.462;6.698;2024-03-06T08:07:34;7.59;92.29
67862;DHT22;54665;51.462;6.698;2024-03-06T08:09:34;7.70;91.94
67862;DHT22;54665;51.462;6.698;2024-03-06T08:11:35;7.78;91.93
67862;DHT22;54665;51.462;6.698;2024-03-06T08:13:35;7.80;91.65
67862;DHT22;54665;51.462;6.698;2024-03-06T08:15:36;7.78;91.79
67862;DHT22;54665;51.462;6.698;2024-03-06T08:17:37;7.95;91.10
67862;DHT22;54665;51.462;6.698;2024-03-06T08:19:38;8.12;91.64
67862;DHT22;54665;51.462;6.698;2024-03-06T08:21:38;8.25;91.57
67862;DHT22;54665;51.462;6.698;2024-03-06T08:23:38;8.39;91.41
67862;DHT22;54665;51.462;6.698;2024-03-06T08:25:39;8.28;91.47
67862;DHT22;54665;51.462;6.698;2024-03-06T08:27:40;8.32;91.11
67862;DHT22;54665;51.462;6.698;2024-03-06T08:29:41;8.18;91.29
67862;DHT22;54665;51.462;6.698;2024-03-06T08:31:41;8.16;91.39
67862;DHT22;54665;51.462;6.698;2024-03-06T08:33:41;8.15;90.86
67862;DHT22;54665;51.462;6.698;2024-03-06T08:35:41;8.14;89.57
67862;DHT22;54665;51.462;6.698;2024-03-06T08:37:42;8.49;90.66
67862;DHT22;54665;51.462;6.698;2024-03-06T08:39:42;8.38;90.22
67862;DHT22;54665;51.462;6.698;2024-03-06T08:41:43;8.26;90.13
67862;DHT22;54665;51.462;6.698;2024-03-06T08:43:43;8.21;89.96
67862;DHT22;54665;51.462;6.698;2024-03-06T08:45:43;8.53;90.69
67862;DHT22;54665;51.462;6.698;2024-03-06T08:47:44;8.57;89.76
67862;DHT22;54665;51.462;6.698;2024-03-06T08:49:45;8.74;90.22
67862;DHT22;54665;51.462;6.698;2024-03-06T08:51:45;8.74;90.19
67862;DHT22;54665;51.462;6.698;2024-03-06T08:53:46;8.87;89.52
67862;DHT22;54665;51.462;6.698;2024-03-06T08:55:46;8.86;88.91
67862;DHT22;54665;51.462;6.698;2024-03-06T08:57:46;8.73;89.37
67862;DHT22;54665;51.462;6.698;2024-03-06T08:59:47;8.74;89.22
67862;DHT22;54665;51.462;6.698;2024-03-06T09:01:47;8.93;89.06
67862;DHT22;54665;51.462;6.698;2024-03-06T09:03:47;9.08;88.83
67862;DHT22;54665;51.462;6.698;2024-03-06T09:05:47;9.13;88.47
67862;DHT22;54665;51.462;6.698;2024-03-06T09:07:48;9.27;88.36
67862;DHT22;54665;51.462;6.698;2024-03-06T09:09:48;9.14;88.86
67862;DHT22;54665;51.462;6.698;2024-03-06T09:11:49;9.41;88.67
67862;DHT22;54665;51.462;6.698;2024-03-06T09:13:49;9.51;88.47
67862;DHT22;54665;51.462;6.698;2024-03-06T09:15:49;9.75;88.35
67862;DHT22;54665;51.462;6.698;2024-03-06T09:17:50;9.78;87.26
67862;DHT22;54665;51.462;6.698;2024-03-06T09:19:50;9.90;87.33
67862;DHT22;54665;51.462;6.698;2024-03-06T09:21:50;9.85;87.61
67862;DHT22;54665;51.462;6.698;2024-03-06T09:23:51;9.76;87.43
67862;DHT22;54665;51.462;6.698;2024-03-06T09:25:51;10.02;87.56
67862;DHT22;54665;51.462;6.698;2024-03-06T09:27:51;10.37;86.48
67862;DHT22;54665;51.462;6.698;2024-03-06T09:29:51;10.17;83.72
67862;DHT22;54665;51.462;6.698;2024-03-06T09:31:52;10.46;85.98
67862;DHT22;54665;51.462;6.698;2024-03-06T09:33:52;10.33;83.78
67862;DHT22;54665;51.462;6.698;2024-03-06T09:35:52;10.41;85.35
67862;DHT22;54665;51.462;6.698;2024-03-06T09:37:52;10.48;85.56
67862;DHT22;54665;51.462;6.698;2024-03-06T09:39:53;10.65;86.01
67862;DHT22;54665;51.462;6.698;2024-03-06T09:41:53;10.50;86.08
67862;DHT22;54665;51.462;6.698;2024-03-06T09:43:54;10.46;85.78
67862;DHT22;54665;51.462;6.698;2024-03-06T09:45:55;10.64;85.91
67862;DHT22;54665;51.462;6.698;2024-03-06T09:47:56;9.90;85.17
67862;DHT22;54665;51.462;6.698;2024-03-06T09:49:56;10.56;85.71
67862;DHT22;54665;51.462;6.698;2024-03-06T09:51:58;10.57;85.24
67862;DHT22;54665;51.462;6.698;2024-03-06T09:53:58;10.95;85.09
67862;DHT22;54665;51.462;6.698;2024-03-06T09:55:59;11.18;83.43
67862;DHT22;54665;51.462;6.698;2024-03-06T09:58:00;11.05;83.69
67862;DHT22;54665;51.462;6.698;2024-03-06T10:00:00;11.32;83.80
67862;DHT22;54665;51.462;6.698;2024-03-06T10:02:01;11.50;82.24
67862;DHT22;54665;51.462;6.698;2024-03-06T10:04:18;11.40;81.45
67862;DHT22;54665;51.462;6.698;2024-03-06T10:06:18;11.52;81.61
67862;DHT22;54665;51.462;6.698;2024-03-06T10:08:20;11.66;81.91
67862;DHT22;54665;51.462;6.698;2024-03-06T10:10:20;11.89;81.26
67862;DHT22;54665;51.462;6.698;2024-03-06T10:12:21;11.90;81.74
67862;DHT22;54665;51.462;6.698;2024-03-06T10:14:21;11.93;81.59
67862;DHT22;54665;51.462;6.698;2024-03-06T10:16:21;12.21;80.37
67862;DHT22;54665;51.462;6.698;2024-03-06T10:18:26;12.53;79.35
67862;DHT22;54665;51.462;6.698;2024-03-06T10:20:27;12.65;78.72
67862;DHT22;54665;51.462;6.698;2024-03-06T10:22:27;12.34;78.02
67862;DHT22;54665;51.462;6.698;2024-03-06T10:24:28;12.48;79.03
67862;DHT22;54665;51.462;6.698;2024-03-06T10:26:30;12.73;78.88
67862;DHT22;54665;51.462;6.698;2024-03-06T10:28:32;12.96;78.04
67862;DHT22;54665;51.462;6.698;2024-03-06T10:30:33;12.95;77.63
67862;DHT22;54665;51.462;6.698;2024-03-06T10:32:33;12.88;76.86
67862;DHT22;54665;51.462;6.698;2024-03-06T10:34:34;13.00;77.73
67862;DHT22;54665;51.462;6.698;2024-03-06T10:36:35;13.09;76.97
67862;DHT22;54665;51.462;6.698;2024-03-06T10:38:36;12.88;76.94
67862;DHT22;54665;51.462;6.698;2024-03-06T10:40:42;12.69;76.94
67862;DHT22;54665;51.462;6.698;2024-03-06T10:42:44;13.06;76.19
67862;DHT22;54665;51.462;6.698;2024-03-06T10:44:51;13.28;75.67
67862;DHT22;54665;51.462;6.698;2024-03-06T10:46:58;13.14;75.00
67862;DHT22;54665;51.462;6.698;2024-03-06T10:48:59;13.50;76.56
67862;DHT22;54665;51.462;6.698;2024-03-06T10:50:59;13.06;76.22
67862;DHT22;54665;51.462;6.698;2024-03-06T10:53:00;13.58;74.90
67862;DHT22;54665;51.462;6.698;2024-03-06T10:55:01;13.54;74.39
67862;DHT22;54665;51.462;6.698;2024-03-06T10:57:02;13.72;74.86
67862;DHT22;54665;51.462;6.698;2024-03-06T10:59:02;13.40;74.12
67862;DHT22;54665;51.462;6.698;2024-03-06T11:01:04;13.43;75.31
67862;DHT22;54665;51.462;6.698;2024-03-06T11:03:06;13.21;72.89
67862;DHT22;54665;51.462;6.698;2024-03-06T11:05:07;12.71;75.46
67862;DHT22;54665;51.462;6.698;2024-03-06T11:07:08;13.58;74.65
67862;DHT22;54665;51.462;6.698;2024-03-06T11:09:08;13.55;72.54
67862;DHT22;54665;51.462;6.698;2024-03-06T11:11:22;13.86;72.34
67862;DHT22;54665;51.462;6.698;2024-03-06T11:13:23;13.86;71.74
67862;DHT22;54665;51.462;6.698;2024-03-06T11:15:26;14.09;70.71
67862;DHT22;54665;51.462;6.698;2024-03-06T11:17:27;13.67;71.83
67862;DHT22;54665;51.462;6.698;2024-03-06T11:19:28;14.19;69.91
67862;DHT22;54665;51.462;6.698;2024-03-06T11:21:29;14.40;69.93
67862;DHT22;54665;51.462;6.698;2024-03-06T11:23:32;14.04;70.13
67862;DHT22;54665;51.462;6.698;2024-03-06T11:28:04;12.35;76.26
67862;DHT22;54665;51.462;6.698;2024-03-06T11:30:09;13.26;74.88
67862;DHT22;54665;51.462;6.698;2024-03-06T11:32:12;13.72;73.29
67862;DHT22;54665;51.462;6.698;2024-03-06T11:34:14;13.55;72.12
67862;DHT22;54665;51.462;6.698;2024-03-06T11:36:25;13.43;73.49
67862;DHT22;54665;51.462;6.698;2024-03-06T11:38:28;14.13;69.70
67862;DHT22;54665;51.462;6.698;2024-03-06T11:40:29;14.02;72.39
67862;DHT22;54665;51.462;6.698;2024-03-06T11:42:35;13.68;71.43
67862;DHT22;54665;51.462;6.698;2024-03-06T11:44:36;13.86;71.33
67862;DHT22;54665;51.462;6.698;2024-03-06T11:48:42;13.03;72.05
67862;DHT22;54665;51.462;6.698;2024-03-06T11:50:44;12.61;73.71
67862;DHT22;54665;51.462;6.698;2024-03-06T11:52:44;13.07;72.66
67862;DHT22;54665;51.462;6.698;2024-03-06T11:54:45;13.13;71.30
67862;DHT22;54665;51.462;6.698;2024-03-06T11:56:45;13.47;69.02
67862;DHT22;54665;51.462;6.698;2024-03-06T11:58:49;13.33;70.85
67862;DHT22;54665;51.462;6.698;2024-03-06T12:00:50;12.96;73.66
67862;DHT22;54665;51.462;6.698;2024-03-06T12:02:50;13.94;70.05
67862;DHT22;54665;51.462;6.698;2024-03-06T12:04:51;14.19;68.45
67862;DHT22;54665;51.462;6.698;2024-03-06T12:06:51;14.57;70.53
67862;DHT22;54665;51.462;6.698;2024-03-06T12:08:53;15.83;67.62
67862;DHT22;54665;51.462;6.698;2024-03-06T12:10:53;14.19;67.52
67862;DHT22;54665;51.462;6.698;2024-03-06T12:12:54;15.07;68.42
67862;DHT22;54665;51.462;6.698;2024-03-06T12:14:58;15.70;63.66
67862;DHT22;54665;51.462;6.698;2024-03-06T12:16:59;16.21;63.91
67862;DHT22;54665;51.462;6.698;2024-03-06T12:19:00;16.51;60.89
67862;DHT22;54665;51.462;6.698;2024-03-06T12:21:02;16.81;61.79
67862;DHT22;54665;51.462;6.698;2024-03-06T12:23:02;17.22;60.78
67862;DHT22;54665;51.462;6.698;2024-03-06T12:25:03;15.23;63.98
67862;DHT22;54665;51.462;6.698;2024-03-06T12:27:05;14.70;65.33
67862;DHT22;54665;51.462;6.698;2024-03-06T12:29:12;15.75;64.73
67862;DHT22;54665;51.462;6.698;2024-03-06T12:31:12;16.23;62.71
67862;DHT22;54665;51.462;6.698;2024-03-06T12:33:16;16.82;60.51
67862;DHT22;54665;51.462;6.698;2024-03-06T12:35:24;16.44;58.51
67862;DHT22;54665;51.462;6.698;2024-03-06T12:37:29;15.07;61.18
67862;DHT22;54665;51.462;6.698;2024-03-06T12:39:31;15.21;62.71
67862;DHT22;54665;51.462;6.698;2024-03-06T12:41:31;15.56;59.65
67862;DHT22;54665;51.462;6.698;2024-03-06T12:43:32;15.41;57.53
67862;DHT22;54665;51.462;6.698;2024-03-06T12:45:33;15.87;58.45
67862;DHT22;54665;51.462;6.698;2024-03-06T12:47:34;16.36;58.42
67862;DHT22;54665;51.462;6.698;2024-03-06T12:49:34;16.48;55.13
67862;DHT22;54665;51.462;6.698;2024-03-06T12:51:34;13.81;62.73
67862;DHT22;54665;51.462;6.698;2024-03-06T12:53:34;13.61;65.81
67862;DHT22;54665;51.462;6.698;2024-03-06T12:55:35;14.55;64.63
67862;DHT22;54665;51.462;6.698;2024-03-06T12:57:35;14.46;63.37